Time;durP1;ratioP1;P1;durP2;ratioP2;P2;SDS_P1;SDS_P2;PMS_P1;PMS_P2;Temp;Humidity;BMP_temperature;BMP_pressure;BME280_temperature;BME280_humidity;BME280_pressure;Samples;Min_cycle;Max_cycle;Signal;HPM_P1;HPM_P2
2021/12/29 00:01:26;;;;;;;2.17;0.90;;;10.00;99.90;;;;;;10356980;28;20725;-77
2021/12/29 00:06:26;;;;;;;4.17;1.20;;;10.10;99.90;;;;;;10354713;28;20232;-71
2021/12/29 00:11:27;;;;;;;3.07;1.47;;;10.10;99.90;;;;;;10347430;28;20215;-72
2021/12/29 00:16:29;;;;;;;4.57;1.20;;;10.10;99.90;;;;;;10361383;28;20230;-73
2021/12/29 00:21:32;;;;;;;3.17;1.63;;;10.10;99.90;;;;;;10351193;28;20618;-75
2021/12/29 00:26:34;;;;;;;4.23;1.20;;;10.10;99.90;;;;;;10356134;28;20227;-73
2021/12/29 00:31:34;;;;;;;2.93;0.97;;;10.10;99.90;;;;;;10346568;28;20258;-75
2021/12/29 00:36:35;;;;;;;2.07;0.83;;;10.20;99.90;;;;;;10357074;28;20771;-73
2021/12/29 00:41:35;;;;;;;3.57;0.90;;;10.20;99.90;;;;;;10352345;28;20245;-73
2021/12/29 00:46:37;;;;;;;7.17;1.23;;;10.10;99.90;;;;;;10348954;28;20981;-72
2021/12/29 00:51:38;;;;;;;3.57;1.30;;;10.10;99.90;;;;;;10347024;28;20233;-72
2021/12/29 00:56:38;;;;;;;2.63;0.80;;;10.10;99.90;;;;;;10350518;28;20884;-72
2021/12/29 01:01:39;;;;;;;4.17;1.20;;;10.10;99.90;;;;;;10348186;28;20233;-72
2021/12/29 01:06:42;;;;;;;2.70;0.80;;;10.10;99.90;;;;;;10342990;28;20231;-72
2021/12/29 01:11:43;;;;;;;5.33;1.10;;;10.10;99.90;;;;;;10348588;28;20787;-72
2021/12/29 01:16:45;;;;;;;2.97;0.80;;;10.10;99.90;;;;;;10354034;28;20249;-75
2021/12/29 01:21:50;;;;;;;4.07;1.20;;;10.10;99.90;;;;;;10351871;28;20359;-76
2021/12/29 01:26:50;;;;;;;2.70;1.20;;;10.00;99.90;;;;;;10339061;28;20230;-75
2021/12/29 01:31:51;;;;;;;2.70;0.97;;;9.90;99.90;;;;;;10350598;28;20220;-75
2021/12/29 01:36:52;;;;;;;3.77;1.20;;;9.80;99.90;;;;;;10354077;28;20242;-75
2021/12/29 01:41:55;;;;;;;2.90;1.27;;;9.70;99.90;;;;;;10341910;28;20401;-75
2021/12/29 01:46:57;;;;;;;6.47;1.63;;;9.70;99.90;;;;;;10347517;28;20293;-75
2021/12/29 01:52:11;;;;;;;5.43;1.53;;;9.60;99.90;;;;;;10348144;28;20238;-72
2021/12/29 01:57:12;;;;;;;7.03;1.53;;;9.40;99.90;;;;;;10350936;28;20592;-72
2021/12/29 02:02:14;;;;;;;5.80;1.87;;;9.30;99.90;;;;;;10355084;28;20222;-72
2021/12/29 02:07:15;;;;;;;9.00;1.70;;;9.30;99.90;;;;;;10352363;28;20717;-72
2021/12/29 02:12:16;;;;;;;3.33;1.57;;;9.30;99.90;;;;;;10356972;28;20230;-73
2021/12/29 02:17:17;;;;;;;8.67;1.90;;;9.20;99.90;;;;;;10349904;28;20242;-72
2021/12/29 02:22:43;;;;;;;7.77;2.00;;;9.20;99.90;;;;;;10359694;28;20906;-73
2021/12/29 02:27:40;;;;;;;8.03;2.00;;;9.10;99.90;;;;;;10359582;28;20234;-72
2021/12/29 02:32:42;;;;;;;7.97;2.50;;;9.10;99.90;;;;;;10356111;28;20231;-74
2021/12/29 02:37:43;;;;;;;9.00;1.97;;;9.10;99.90;;;;;;10358428;28;20234;-74
2021/12/29 02:42:44;;;;;;;5.87;2.03;;;9.10;99.90;;;;;;10354547;28;20222;-72
2021/12/29 02:47:45;;;;;;;11.43;1.80;;;9.10;99.90;;;;;;10354475;28;20975;-72
2021/12/29 02:52:46;;;;;;;7.10;2.20;;;9.10;99.90;;;;;;10354321;28;20597;-73
2021/12/29 02:57:47;;;;;;;8.43;2.40;;;9.10;99.90;;;;;;10362082;28;20226;-74
2021/12/29 03:02:48;;;;;;;4.23;1.80;;;9.10;99.90;;;;;;10345897;28;20783;-71
2021/12/29 03:07:48;;;;;;;10.20;2.20;;;9.10;99.90;;;;;;10357173;28;20229;-73
2021/12/29 03:12:49;;;;;;;8.13;2.10;;;9.10;99.90;;;;;;10352060;28;20212;-73
2021/12/29 03:17:49;;;;;;;3.83;1.73;;;9.10;99.90;;;;;;10355419;28;20214;-73
2021/12/29 03:22:50;;;;;;;6.70;1.97;;;9.00;99.90;;;;;;10353036;28;20659;-73
2021/12/29 03:27:51;;;;;;;7.50;2.00;;;9.00;99.90;;;;;;10354915;28;20424;-73
2021/12/29 03:33:02;;;;;;;8.90;1.83;;;9.00;99.90;;;;;;10352412;28;20218;-73
2021/12/29 03:38:07;;;;;;;4.60;1.60;;;9.00;99.90;;;;;;10364008;28;20231;-72
2021/12/29 03:43:10;;;;;;;8.83;2.40;;;8.90;99.90;;;;;;10345835;28;20215;-72
2021/12/29 03:48:12;;;;;;;4.93;2.00;;;8.90;99.90;;;;;;10353000;28;20617;-72
2021/12/29 03:53:14;;;;;;;10.67;2.00;;;8.90;99.90;;;;;;10353241;28;20233;-72
2021/12/29 03:58:19;;;;;;;7.57;2.07;;;9.00;99.90;;;;;;10349965;28;20775;-71
2021/12/29 04:03:23;;;;;;;5.30;2.40;;;8.90;99.90;;;;;;10351760;28;20299;-71
2021/12/29 04:08:25;;;;;;;5.63;1.80;;;8.90;99.90;;;;;;10347530;28;20238;-72
2021/12/29 04:13:25;;;;;;;6.47;2.00;;;8.90;99.90;;;;;;10357281;28;20226;-72
2021/12/29 04:18:26;;;;;;;5.97;1.83;;;8.90;99.90;;;;;;10358485;28;20874;-73
2021/12/29 04:23:34;;;;;;;4.10;1.70;;;8.90;99.90;;;;;;10341521;28;20712;-71
2021/12/29 04:28:35;;;;;;;7.87;1.77;;;9.00;99.90;;;;;;10354863;28;20317;-72
2021/12/29 04:33:37;;;;;;;4.53;1.77;;;9.00;99.90;;;;;;10344943;28;20701;-73
2021/12/29 04:38:37;;;;;;;11.23;2.07;;;9.00;99.90;;;;;;10353661;28;20223;-72
2021/12/29 04:43:38;;;;;;;6.67;1.63;;;9.00;99.90;;;;;;10348145;28;20307;-72
2021/12/29 04:48:38;;;;;;;6.97;1.93;;;8.90;99.90;;;;;;10341182;28;20321;-72
2021/12/29 04:53:39;;;;;;;3.77;1.87;;;8.90;99.90;;;;;;10340832;28;20321;-73
2021/12/29 04:58:40;;;;;;;3.47;1.67;;;8.90;99.90;;;;;;10356437;28;20720;-73
2021/12/29 05:03:43;;;;;;;7.70;1.90;;;8.90;99.90;;;;;;10350019;28;20226;-73
2021/12/29 05:08:44;;;;;;;3.20;1.80;;;8.90;99.90;;;;;;10348436;28;20219;-73
2021/12/29 05:13:45;;;;;;;3.90;1.50;;;8.90;99.90;;;;;;10350276;28;20292;-72
2021/12/29 05:18:49;;;;;;;3.87;1.80;;;8.90;99.90;;;;;;10357881;28;20214;-73
2021/12/29 05:23:49;;;;;;;4.30;1.50;;;8.90;99.90;;;;;;10356754;28;20215;-72
2021/12/29 05:28:50;;;;;;;6.40;1.70;;;8.90;99.90;;;;;;10347103;28;20220;-72
2021/12/29 05:33:51;;;;;;;7.00;2.10;;;8.90;99.90;;;;;;10349352;28;20230;-74
2021/12/29 05:38:56;;;;;;;4.20;2.00;;;8.90;99.90;;;;;;10347715;28;20697;-73
2021/12/29 05:43:56;;;;;;;2.63;1.60;;;8.90;99.90;;;;;;10347322;28;20270;-72
2021/12/29 05:48:57;;;;;;;6.17;1.53;;;8.90;99.90;;;;;;10353086;28;20253;-73
2021/12/29 05:53:58;;;;;;;5.53;1.63;;;9.00;99.90;;;;;;10352928;28;20262;-72
2021/12/29 05:59:01;;;;;;;5.60;1.60;;;9.00;99.90;;;;;;10362094;28;20649;-71
2021/12/29 06:04:02;;;;;;;5.83;1.87;;;9.00;99.90;;;;;;10369250;28;20225;-71
2021/12/29 06:09:03;;;;;;;4.43;2.50;;;9.00;99.90;;;;;;10361519;28;20276;-72
2021/12/29 06:14:05;;;;;;;4.87;2.50;;;9.00;99.90;;;;;;10368503;28;20230;-72
2021/12/29 06:19:05;;;;;;;8.90;2.90;;;9.00;99.90;;;;;;10358605;28;20245;-72
2021/12/29 06:24:07;;;;;;;8.57;3.10;;;9.00;99.90;;;;;;10351472;28;20255;-73
2021/12/29 06:29:08;;;;;;;7.63;3.10;;;8.90;99.90;;;;;;10367060;28;20218;-73
2021/12/29 06:34:08;;;;;;;6.90;3.33;;;8.90;99.90;;;;;;10367732;28;20234;-72
2021/12/29 06:39:09;;;;;;;8.27;3.37;;;8.90;99.90;;;;;;10353472;28;20660;-72
2021/12/29 06:44:10;;;;;;;7.93;3.50;;;9.00;99.90;;;;;;10347250;28;20222;-73
2021/12/29 06:49:10;;;;;;;8.33;3.73;;;9.00;99.90;;;;;;10365890;28;20278;-72
2021/12/29 06:54:11;;;;;;;10.07;4.30;;;9.00;99.90;;;;;;10349763;28;20609;-72
2021/12/29 06:59:11;;;;;;;10.37;4.10;;;9.00;99.90;;;;;;10352742;28;20618;-72
2021/12/29 07:04:12;;;;;;;10.33;4.33;;;9.00;99.90;;;;;;10358436;28;20219;-73
2021/12/29 07:09:13;;;;;;;8.60;4.80;;;9.00;99.90;;;;;;10349453;28;20280;-72
2021/12/29 07:14:14;;;;;;;6.37;4.50;;;9.00;99.90;;;;;;10363128;28;20265;-73
2021/12/29 07:19:15;;;;;;;15.27;5.30;;;9.00;99.90;;;;;;10359067;28;20210;-73
2021/12/29 07:24:16;;;;;;;8.33;4.20;;;9.00;99.90;;;;;;10357011;28;20218;-74
2021/12/29 07:29:17;;;;;;;8.40;4.30;;;9.00;99.90;;;;;;10347444;28;20217;-73
2021/12/29 07:34:18;;;;;;;8.43;4.00;;;9.00;99.90;;;;;;10364731;28;20218;-72
2021/12/29 07:39:18;;;;;;;7.97;3.93;;;9.00;99.90;;;;;;10356422;28;20225;-73
2021/12/29 07:44:19;;;;;;;7.30;3.30;;;8.90;99.90;;;;;;10353024;28;20228;-74
2021/12/29 07:49:21;;;;;;;8.63;3.07;;;8.90;99.90;;;;;;10356203;28;20274;-71
2021/12/29 07:54:22;;;;;;;7.40;2.80;;;8.90;99.90;;;;;;10362367;28;20321;-72
2021/12/29 07:59:23;;;;;;;7.80;3.40;;;8.90;99.90;;;;;;10360626;28;20298;-74
2021/12/29 08:04:24;;;;;;;7.10;2.90;;;8.90;99.90;;;;;;10362100;28;20301;-73
2021/12/29 08:09:25;;;;;;;9.37;3.17;;;8.90;99.90;;;;;;10352786;28;20304;-71
2021/12/29 08:14:26;;;;;;;12.27;3.20;;;9.00;99.90;;;;;;10359346;28;20222;-73
2021/12/29 08:19:26;;;;;;;8.93;3.23;;;9.00;99.90;;;;;;10353061;28;20214;-71
2021/12/29 08:24:27;;;;;;;7.23;3.17;;;9.00;99.90;;;;;;10363613;28;20221;-74
2021/12/29 08:29:28;;;;;;;6.40;2.30;;;9.10;99.90;;;;;;10351535;28;20336;-72
2021/12/29 08:34:28;;;;;;;5.20;2.23;;;9.10;99.90;;;;;;10355040;28;20245;-73
2021/12/29 08:39:29;;;;;;;4.13;1.80;;;9.20;99.90;;;;;;10361970;28;20251;-74
2021/12/29 08:44:29;;;;;;;5.87;1.70;;;9.20;99.90;;;;;;10350675;28;20215;-70
2021/12/29 08:49:30;;;;;;;3.20;1.90;;;9.20;99.90;;;;;;10352726;28;20638;-73
2021/12/29 08:54:31;;;;;;;5.40;1.70;;;9.30;99.90;;;;;;10358764;28;20228;-73
2021/12/29 08:59:32;;;;;;;4.70;1.73;;;9.40;99.90;;;;;;10350540;28;20763;-74
2021/12/29 09:04:33;;;;;;;6.53;1.97;;;9.40;99.90;;;;;;10362191;28;20233;-74
2021/12/29 09:09:33;;;;;;;4.77;2.07;;;9.50;99.90;;;;;;10364421;28;20222;-75
2021/12/29 09:14:34;;;;;;;6.37;2.13;;;9.60;99.90;;;;;;10357367;28;20310;-74
2021/12/29 09:19:39;;;;;;;4.53;1.40;;;9.80;99.90;;;;;;10346951;28;20296;-73
2021/12/29 09:24:40;;;;;;;2.97;1.43;;;9.90;99.90;;;;;;10361732;28;20314;-69
2021/12/29 09:29:41;;;;;;;4.40;1.93;;;10.00;99.90;;;;;;10343921;28;20347;-72
2021/12/29 09:34:41;;;;;;;10.33;2.17;;;10.10;99.90;;;;;;10357356;28;20237;-73
2021/12/29 09:39:42;;;;;;;7.70;2.50;;;10.30;99.90;;;;;;10359892;28;20281;-72
2021/12/29 09:44:42;;;;;;;5.40;1.97;;;10.30;99.90;;;;;;10370669;28;20245;-71
2021/12/29 09:49:43;;;;;;;7.43;1.93;;;10.30;99.90;;;;;;10363194;28;20658;-71
2021/12/29 09:54:44;;;;;;;3.50;1.63;;;10.40;99.90;;;;;;10354019;28;20231;-71
2021/12/29 09:59:45;;;;;;;5.23;1.67;;;10.50;99.90;;;;;;10361728;28;20653;-72
2021/12/29 10:04:46;;;;;;;4.43;1.70;;;10.70;99.90;;;;;;10364117;28;20231;-74
2021/12/29 10:09:47;;;;;;;7.10;1.70;;;10.90;99.90;;;;;;10360866;28;20219;-73
2021/12/29 10:14:56;;;;;;;5.43;1.90;;;11.20;99.90;;;;;;10367245;28;20229;-72
2021/12/29 10:20:05;;;;;;;4.77;1.30;;;11.30;99.90;;;;;;10355591;28;20215;-73
2021/12/29 10:25:11;;;;;;;4.47;1.50;;;11.40;99.90;;;;;;10367015;28;20684;-73
2021/12/29 10:30:27;;;;;;;2.77;1.53;;;11.50;99.90;;;;;;10366907;28;20202;-73
2021/12/29 10:35:32;;;;;;;2.70;1.20;;;11.60;99.90;;;;;;10357093;28;20351;-72
2021/12/29 10:40:34;;;;;;;3.87;1.43;;;11.60;99.90;;;;;;10360202;28;20265;-75
2021/12/29 10:45:38;;;;;;;3.53;1.30;;;11.80;99.90;;;;;;10349430;28;20687;-72
2021/12/29 10:50:39;;;;;;;3.93;1.70;;;11.80;99.90;;;;;;10353845;28;20239;-74
2021/12/29 10:55:40;;;;;;;3.70;1.23;;;11.90;99.90;;;;;;10360715;28;20823;-75
2021/12/29 11:00:47;;;;;;;3.47;1.37;;;12.20;99.90;;;;;;10345043;28;20225;-74
2021/12/29 11:05:53;;;;;;;3.83;1.13;;;12.50;99.90;;;;;;10356748;28;20222;-75
2021/12/29 11:11:03;;;;;;;4.00;1.27;;;12.90;99.90;;;;;;10344717;28;20766;-75
2021/12/29 11:16:05;;;;;;;4.50;1.60;;;13.30;99.90;;;;;;10360379;28;20253;-77
2021/12/29 11:21:06;;;;;;;3.33;1.53;;;13.60;99.90;;;;;;10361709;28;20219;-75
2021/12/29 11:26:06;;;;;;;5.47;1.60;;;14.50;99.90;;;;;;10353688;28;20269;-73
2021/12/29 11:31:09;;;;;;;3.67;1.70;;;14.20;99.90;;;;;;10363661;28;20223;-74
2021/12/29 11:36:20;;;;;;;5.30;1.53;;;13.20;99.90;;;;;;10360284;28;20230;-75
2021/12/29 11:41:20;;;;;;;7.10;2.27;;;12.50;99.90;;;;;;10357391;28;20221;-77
2021/12/29 11:46:24;;;;;;;7.33;2.10;;;12.10;99.90;;;;;;10356544;28;20245;-75
2021/12/29 11:51:40;;;;;;;6.73;1.80;;;11.80;99.90;;;;;;10360208;28;20226;-74
2021/12/29 11:56:42;;;;;;;6.53;1.83;;;11.60;99.90;;;;;;10351203;28;20249;-74
2021/12/29 12:01:53;;;;;;;7.27;2.30;;;11.40;99.90;;;;;;10361085;28;20221;-74
2021/12/29 12:07:07;;;;;;;8.90;2.90;;;11.30;99.90;;;;;;10349881;28;20272;-74
2021/12/29 12:12:08;;;;;;;7.00;2.30;;;11.40;99.90;;;;;;10356311;28;20546;-75
2021/12/29 12:17:17;;;;;;;8.27;2.47;;;11.60;99.90;;;;;;10361373;28;20276;-75
2021/12/29 12:22:20;;;;;;;8.27;3.00;;;11.70;99.90;;;;;;10363192;28;20229;-74
2021/12/29 12:27:30;;;;;;;7.07;2.40;;;11.80;99.90;;;;;;10363154;28;20238;-73
2021/12/29 12:32:52;;;;;;;9.43;2.63;;;11.70;99.90;;;;;;10353657;28;20776;-73
2021/12/29 12:37:53;;;;;;;5.77;2.23;;;11.70;99.90;;;;;;10358204;28;20253;-74
2021/12/29 12:43:15;;;;;;;7.47;2.73;;;11.60;99.90;;;;;;10350576;28;20941;-73
2021/12/29 12:48:22;;;;;;;6.23;2.67;;;11.60;99.90;;;;;;10364894;28;20326;-74
2021/12/29 12:53:30;;;;;;;7.03;2.60;;;11.60;99.90;;;;;;10359721;28;20225;-74
2021/12/29 12:58:38;;;;;;;8.90;2.17;;;11.50;99.90;;;;;;10356749;28;20745;-74
2021/12/29 13:03:40;;;;;;;5.27;2.57;;;11.50;99.90;;;;;;10343954;28;20268;-73
2021/12/29 13:08:43;;;;;;;9.57;3.23;;;11.50;99.90;;;;;;10359378;28;20230;-74
2021/12/29 13:13:50;;;;;;;5.90;2.40;;;11.50;99.90;;;;;;10348027;28;20234;-74
2021/12/29 13:18:51;;;;;;;5.07;2.40;;;11.40;99.90;;;;;;10358194;28;20960;-74
2021/12/29 13:23:55;;;;;;;4.40;2.50;;;11.30;99.90;;;;;;10341543;28;20243;-74
2021/12/29 13:28:56;;;;;;;4.73;1.97;;;11.20;99.90;;;;;;10363469;28;20692;-73
2021/12/29 13:33:57;;;;;;;4.27;2.23;;;11.00;99.90;;;;;;10358772;28;20227;-75
2021/12/29 13:38:58;;;;;;;4.77;2.20;;;10.90;99.90;;;;;;10363383;28;20244;-75
2021/12/29 13:44:02;;;;;;;7.03;2.43;;;10.80;99.90;;;;;;10350743;28;20276;-75
2021/12/29 13:49:05;;;;;;;8.13;2.23;;;10.80;99.90;;;;;;10363193;28;20237;-74
2021/12/29 13:54:09;;;;;;;6.43;2.17;;;10.80;99.90;;;;;;10358353;28;20312;-74
2021/12/29 13:59:14;;;;;;;3.27;1.77;;;10.70;99.90;;;;;;10363419;28;20324;-74
2021/12/29 14:04:18;;;;;;;4.17;2.20;;;10.70;99.90;;;;;;10363022;28;20214;-75
2021/12/29 14:09:19;;;;;;;5.67;2.37;;;10.60;99.90;;;;;;10363597;28;20229;-75
2021/12/29 14:14:20;;;;;;;6.13;2.20;;;10.60;99.90;;;;;;10368531;28;20228;-75
2021/12/29 14:24:38;;;;;;;7.33;2.80;;;10.50;99.90;;;;;;10883835;23;20261;-75
2021/12/29 14:29:38;;;;;;;7.57;2.77;;;10.50;99.90;;;;;;10426630;28;20317;-75
2021/12/29 14:34:42;;;;;;;7.73;2.60;;;10.50;99.90;;;;;;10435890;28;20727;-75
2021/12/29 14:39:43;;;;;;;9.47;2.87;;;10.50;99.90;;;;;;10416792;28;20227;-74
2021/12/29 14:44:49;;;;;;;7.97;3.27;;;10.50;99.90;;;;;;10395252;28;20221;-75
2021/12/29 14:49:57;;;;;;;5.77;2.80;;;10.50;99.90;;;;;;10434485;28;20710;-74
2021/12/29 14:54:59;;;;;;;7.70;3.07;;;10.50;99.90;;;;;;10443439;28;20228;-75
2021/12/29 15:00:05;;;;;;;8.17;2.60;;;10.50;99.90;;;;;;10438635;28;20834;-75
2021/12/29 15:05:16;;;;;;;7.27;2.60;;;10.40;99.90;;;;;;10433857;28;20691;-74
2021/12/29 15:10:22;;;;;;;7.80;2.83;;;10.40;99.90;;;;;;10446877;28;20212;-74
2021/12/29 15:15:28;;;;;;;8.83;2.80;;;10.40;99.90;;;;;;10439841;28;20587;-75
2021/12/29 15:20:33;;;;;;;7.10;3.10;;;10.40;99.90;;;;;;10435939;28;20690;-74
2021/12/29 15:25:34;;;;;;;7.57;2.87;;;10.30;99.90;;;;;;10444474;28;20217;-74
2021/12/29 15:30:39;;;;;;;12.43;3.10;;;10.30;99.90;;;;;;10439856;28;20255;-74
2021/12/29 15:35:41;;;;;;;8.43;2.97;;;10.30;99.90;;;;;;10433417;28;20251;-74
2021/12/29 15:40:43;;;;;;;13.77;3.37;;;10.30;99.90;;;;;;10432655;28;20222;-74
2021/12/29 15:45:43;;;;;;;11.77;3.23;;;10.30;99.90;;;;;;10448520;28;20219;-75
2021/12/29 15:50:46;;;;;;;9.83;3.40;;;10.20;99.90;;;;;;10442216;28;20243;-77
2021/12/29 15:55:46;;;;;;;11.30;3.10;;;10.20;99.90;;;;;;10441715;28;20300;-76
2021/12/29 16:00:48;;;;;;;13.80;3.50;;;10.20;99.90;;;;;;10426736;28;20216;-74
2021/12/29 16:05:49;;;;;;;8.57;3.53;;;10.20;99.90;;;;;;10437668;28;20335;-74
2021/12/29 16:10:50;;;;;;;9.63;3.63;;;10.20;99.90;;;;;;10427594;28;20313;-75
2021/12/29 16:15:51;;;;;;;11.80;4.10;;;10.20;99.90;;;;;;10429392;28;20234;-75
2021/12/29 16:20:52;;;;;;;9.50;3.30;;;10.10;99.90;;;;;;10440814;28;20224;-75
2021/12/29 16:25:52;;;;;;;15.70;6.20;;;10.10;99.90;;;;;;10381916;28;20214;-74
2021/12/29 16:30:53;;;;;;;16.20;5.77;;;9.90;99.90;;;;;;10395342;28;20232;-74
2021/12/29 16:35:53;;;;;;;13.83;5.77;;;9.80;99.90;;;;;;10388343;28;20230;-75
2021/12/29 16:40:54;;;;;;;14.17;6.77;;;9.70;99.90;;;;;;10421077;28;20221;-75
2021/12/29 16:45:56;;;;;;;10.97;6.13;;;9.70;99.90;;;;;;10442043;28;20216;-74
2021/12/29 16:50:58;;;;;;;15.87;7.30;;;9.60;99.90;;;;;;10435193;28;20220;-75
2021/12/29 16:55:59;;;;;;;13.47;7.67;;;9.60;99.90;;;;;;10425495;28;20458;-74
2021/12/29 17:01:00;;;;;;;11.40;8.03;;;9.60;99.90;;;;;;10431745;28;20258;-75
2021/12/29 17:06:01;;;;;;;14.63;8.23;;;9.60;99.90;;;;;;10424419;28;20610;-75
2021/12/29 17:11:03;;;;;;;10.17;8.13;;;9.60;99.90;;;;;;10426812;28;20630;-74
2021/12/29 17:16:03;;;;;;;10.13;7.10;;;9.60;99.90;;;;;;10425885;28;20312;-72
2021/12/29 17:21:04;;;;;;;12.30;8.13;;;9.60;99.90;;;;;;10435138;28;20606;-76
2021/12/29 17:26:31;;;;;;;14.33;9.77;;;9.60;99.90;;;;;;10438878;28;20223;-80
2021/12/29 17:36:43;;;;;;;12.50;7.93;;;9.50;99.90;;;;;;9960381;26;20335;-77
2021/12/29 17:41:45;;;;;;;12.53;9.10;;;9.50;99.90;;;;;;10336914;28;20810;-77
2021/12/29 17:46:51;;;;;;;10.20;7.97;;;9.50;99.90;;;;;;10335243;28;20225;-78
2021/12/29 17:57:01;;;;;;;10.07;7.93;;;9.40;99.90;;;;;;10400299;28;20312;-78
2021/12/29 18:07:20;;;;;;;14.30;7.50;;;9.30;99.90;;;;;;10367355;28;20233;-78
2021/12/29 18:12:26;;;;;;;10.97;8.50;;;9.40;99.90;;;;;;10378926;28;20221;-77
2021/12/29 18:17:35;;;;;;;12.67;10.00;;;9.40;99.90;;;;;;10375462;28;20625;-79
2021/12/29 18:22:38;;;;;;;9.37;8.13;;;9.30;99.90;;;;;;10367319;28;20220;-77
2021/12/29 18:27:45;;;;;;;9.93;8.93;;;9.30;99.90;;;;;;10366327;28;20304;-77
2021/12/29 18:32:46;;;;;;;13.10;10.30;;;9.30;99.90;;;;;;10363170;28;20272;-77
2021/12/29 18:37:47;;;;;;;9.33;8.33;;;9.40;99.90;;;;;;10370575;28;20285;-77
2021/12/29 18:42:50;;;;;;;11.27;9.57;;;9.40;99.90;;;;;;10363642;28;20218;-77
2021/12/29 18:47:53;;;;;;;16.97;11.20;;;9.30;99.90;;;;;;10370629;28;20308;-77
2021/12/29 18:53:00;;;;;;;21.63;12.23;;;9.40;99.90;;;;;;10372487;28;20755;-78
2021/12/29 18:58:15;;;;;;;16.67;12.70;;;9.40;99.90;;;;;;10362522;28;20237;-78
2021/12/29 19:03:17;;;;;;;21.40;14.80;;;9.40;99.90;;;;;;10364249;28;20563;-77
2021/12/29 19:08:19;;;;;;;18.53;15.73;;;9.40;99.90;;;;;;10405544;28;20219;-76
2021/12/29 19:13:20;;;;;;;24.83;18.13;;;9.40;99.90;;;;;;10387576;28;20651;-76
2021/12/29 19:18:24;;;;;;;21.87;17.30;;;9.40;99.90;;;;;;10371041;28;20235;-77
2021/12/29 19:23:27;;;;;;;25.00;19.23;;;9.50;99.90;;;;;;10380976;28;20218;-76
2021/12/29 19:28:30;;;;;;;25.93;19.87;;;9.50;99.90;;;;;;10329355;28;20271;-76
2021/12/29 19:33:33;;;;;;;27.20;20.40;;;9.50;99.90;;;;;;10316488;28;20241;-77
2021/12/29 19:38:37;;;;;;;27.37;21.57;;;9.60;99.90;;;;;;10331766;28;20263;-77
2021/12/29 19:43:43;;;;;;;33.03;22.43;;;9.60;99.90;;;;;;10334906;28;20249;-77
2021/12/29 19:48:45;;;;;;;35.90;22.87;;;9.60;99.90;;;;;;10339731;28;20221;-77
2021/12/29 19:53:47;;;;;;;32.37;21.80;;;9.70;99.90;;;;;;10331089;28;20214;-78
2021/12/29 19:58:50;;;;;;;27.43;19.60;;;9.80;99.90;;;;;;10367599;28;20238;-77
2021/12/29 20:03:53;;;;;;;30.07;20.73;;;9.80;99.90;;;;;;10325749;28;20227;-77
2021/12/29 20:09:06;;;;;;;25.43;19.93;;;9.90;99.90;;;;;;10368238;28;20312;-78
2021/12/29 20:14:07;;;;;;;29.50;20.80;;;9.90;99.90;;;;;;10341428;28;20284;-77
2021/12/29 20:19:14;;;;;;;27.03;20.67;;;9.90;99.90;;;;;;10340751;28;20218;-78
2021/12/29 20:24:18;;;;;;;32.17;20.70;;;10.00;99.90;;;;;;10367966;28;20395;-77
2021/12/29 20:29:19;;;;;;;28.27;18.93;;;10.00;99.90;;;;;;10381349;28;20695;-77
2021/12/29 20:34:20;;;;;;;29.97;20.23;;;10.10;99.90;;;;;;10364239;28;20927;-78
2021/12/29 20:39:22;;;;;;;22.80;18.33;;;10.10;99.90;;;;;;10367130;28;20232;-77
2021/12/29 20:44:26;;;;;;;24.50;18.37;;;10.10;99.90;;;;;;10383033;28;20568;-78
2021/12/29 20:49:26;;;;;;;24.70;17.30;;;10.20;99.90;;;;;;10370673;28;20267;-77
2021/12/29 20:59:56;;;;;;;28.53;18.30;;;10.20;99.90;;;;;;10359401;28;20269;-78
2021/12/29 21:04:58;;;;;;;23.17;17.13;;;10.30;99.90;;;;;;10367464;28;20253;-78
2021/12/29 21:10:12;;;;;;;24.03;17.07;;;10.30;99.90;;;;;;10368257;28;20218;-78
2021/12/29 21:15:55;;;;;;;24.77;17.43;;;10.30;99.90;;;;;;10322995;28;20222;-78
2021/12/29 21:21:08;;;;;;;19.03;15.23;;;10.40;99.90;;;;;;10337219;28;20240;-78
2021/12/29 21:26:18;;;;;;;22.47;15.60;;;10.50;99.90;;;;;;10401349;28;20231;-79
2021/12/29 21:31:48;;;;;;;23.23;16.53;;;10.50;99.90;;;;;;10395632;28;20212;-78
2021/12/29 21:37:10;;;;;;;18.67;14.67;;;10.50;99.90;;;;;;10400887;28;20232;-78
2021/12/29 21:42:25;;;;;;;22.43;15.90;;;10.50;99.90;;;;;;10367348;28;20218;-77
2021/12/29 21:47:31;;;;;;;28.10;17.00;;;10.50;99.90;;;;;;10399565;23;20249;-79
2021/12/29 21:58:43;;;;;;;24.40;17.30;;;10.50;99.90;;;;;;10438631;28;20593;-78
2021/12/29 22:09:31;;;;;;;32.80;20.43;;;10.60;99.90;;;;;;10447587;28;20193;-78
2021/12/29 22:14:40;;;;;;;23.90;17.10;;;10.60;99.90;;;;;;10407344;28;20610;-79
2021/12/29 22:19:47;;;;;;;22.07;13.97;;;10.60;99.90;;;;;;10399411;28;20218;-78
2021/12/29 22:25:08;;;;;;;34.03;18.10;;;10.50;99.90;;;;;;10413559;28;20248;-79
2021/12/29 22:30:22;;;;;;;30.83;17.47;;;10.40;99.90;;;;;;10431713;28;20220;-80
2021/12/29 22:35:25;;;;;;;30.97;17.83;;;10.30;99.90;;;;;;10438497;28;20238;-78
2021/12/29 22:40:51;;;;;;;27.53;17.17;;;10.30;99.90;;;;;;10451965;28;20218;-78
2021/12/29 22:45:56;;;;;;;22.83;16.23;;;10.30;99.90;;;;;;10436396;28;20226;-79
2021/12/29 22:51:09;;;;;;;22.20;14.80;;;10.40;99.90;;;;;;10452772;28;20229;-78
2021/12/29 22:56:10;;;;;;;22.00;15.07;;;10.40;99.90;;;;;;10439157;28;20217;-78
2021/12/29 23:01:28;;;;;;;26.13;16.77;;;10.50;99.90;;;;;;10446934;28;20700;-78
2021/12/29 23:06:28;;;;;;;25.77;14.90;;;10.60;99.90;;;;;;10415765;28;20273;-78
2021/12/29 23:11:30;;;;;;;19.33;12.40;;;10.70;99.90;;;;;;10435022;28;20655;-78
2021/12/29 23:16:33;;;;;;;19.90;11.40;;;10.70;99.90;;;;;;10432446;28;20231;-77
2021/12/29 23:21:36;;;;;;;17.97;12.23;;;10.80;99.90;;;;;;10439362;28;20216;-78
2021/12/29 23:31:57;;;;;;;16.40;11.97;;;10.80;99.90;;;;;;10426733;28;20692;-74
2021/12/29 23:36:58;;;;;;;19.03;11.40;;;10.70;99.90;;;;;;10427343;28;20230;-75
2021/12/29 23:41:59;;;;;;;16.87;11.50;;;10.70;99.90;;;;;;10435200;28;20221;-77
2021/12/29 23:47:00;;;;;;;17.83;11.03;;;10.70;99.90;;;;;;10429600;28;20213;-73
2021/12/29 23:52:00;;;;;;;10.53;7.40;;;10.70;99.90;;;;;;10430205;28;20898;-74
2021/12/29 23:57:01;;;;;;;8.90;6.47;;;10.60;99.90;;;;;;10434433;28;20243;-73
